createdAt,value
2023-07-25T00:03:06.180Z,27.10
2023-07-25T00:08:08.545Z,27.05
2023-07-25T00:13:11.324Z,27.02
2023-07-25T00:18:13.541Z,26.95
2023-07-25T00:23:15.646Z,26.90
2023-07-25T00:28:23.608Z,26.90
2023-07-25T00:33:25.689Z,26.87
2023-07-25T00:38:29.605Z,26.83
2023-07-25T00:43:33.116Z,26.80
2023-07-25T00:48:35.240Z,26.79
2023-07-25T00:53:41.516Z,26.81
2023-07-25T00:58:44.187Z,26.80
2023-07-25T01:05:16.999Z,26.83
2023-07-25T01:10:24.710Z,26.86
2023-07-25T01:15:31.277Z,26.88
2023-07-25T01:20:36.132Z,26.89
2023-07-25T01:25:45.271Z,26.90
2023-07-25T01:30:49.438Z,26.89
2023-07-25T01:35:53.524Z,26.88
2023-07-25T01:40:56.196Z,26.89
2023-07-25T01:45:58.785Z,26.89
2023-07-25T01:51:00.945Z,26.88
2023-07-25T01:56:04.377Z,26.88
2023-07-25T02:01:18.561Z,26.86
2023-07-25T02:06:23.888Z,26.84
2023-07-25T02:11:25.967Z,26.84
2023-07-25T02:16:30.902Z,26.87
2023-07-25T02:21:33.410Z,26.88
2023-07-25T02:26:37.435Z,26.87
2023-07-25T02:31:40.200Z,26.78
2023-07-25T02:36:42.656Z,26.73
2023-07-25T02:41:55.819Z,26.64
2023-07-25T02:46:57.779Z,26.58
2023-07-25T02:51:59.939Z,26.51
2023-07-25T02:57:10.360Z,26.46
2023-07-25T03:02:13.426Z,26.44
2023-07-25T03:07:16.068Z,26.40
2023-07-25T03:12:19.817Z,26.37
2023-07-25T03:17:22.364Z,26.31
2023-07-25T03:22:28.774Z,26.30
2023-07-25T03:27:36.431Z,26.33
2023-07-25T03:32:39.547Z,26.30
2023-07-25T03:37:42.689Z,26.26
2023-07-25T03:42:45.471Z,26.25
2023-07-25T03:47:49.016Z,26.23
2023-07-25T03:53:08.963Z,26.26
2023-07-25T03:58:13.273Z,26.30
2023-07-25T04:04:12.632Z,26.30
2023-07-25T04:09:25.410Z,26.32
2023-07-25T04:14:27.488Z,26.34
2023-07-25T04:19:29.777Z,26.33
2023-07-25T04:24:41.755Z,26.30
2023-07-25T04:29:50.053Z,26.29
2023-07-25T04:34:52.675Z,26.24
2023-07-25T04:40:00.275Z,26.19
2023-07-25T04:45:08.882Z,26.11
2023-07-25T04:50:12.088Z,26.05
2023-07-25T04:55:23.714Z,26.06
2023-07-25T05:00:33.399Z,26.08
2023-07-25T05:05:42.293Z,26.11
2023-07-25T05:10:44.878Z,26.24
2023-07-25T05:15:49.560Z,26.37
2023-07-25T05:20:53.550Z,26.37
2023-07-25T05:26:00.420Z,26.36
2023-07-25T05:31:12.620Z,26.38
2023-07-25T05:36:21.077Z,26.34
2023-07-25T05:41:25.919Z,26.30
2023-07-25T05:46:28.006Z,26.29
2023-07-25T05:51:33.762Z,26.30
2023-07-25T05:56:44.796Z,26.32
2023-07-25T06:01:47.670Z,26.31
2023-07-25T06:06:49.977Z,26.32
2023-07-25T06:11:52.292Z,26.31
2023-07-25T06:16:55.624Z,26.31
2023-07-25T06:22:00.826Z,26.31
2023-07-25T06:27:09.535Z,26.34
2023-07-25T06:32:14.193Z,26.35
2023-07-25T06:37:16.358Z,26.38
2023-07-25T06:42:21.501Z,26.38
2023-07-25T06:47:29.114Z,26.43
2023-07-25T06:52:50.887Z,26.55
2023-07-25T06:57:53.074Z,26.69
2023-07-25T07:03:01.756Z,26.87
2023-07-25T07:08:12.020Z,27.07
2023-07-25T07:13:14.173Z,27.33
2023-07-25T07:18:16.192Z,27.57
2023-07-25T07:23:18.967Z,27.79
2023-07-25T07:28:21.039Z,28.00
2023-07-25T07:33:23.139Z,28.19
2023-07-25T07:38:25.074Z,28.42
2023-07-25T07:43:27.135Z,28.54
2023-07-25T07:48:29.227Z,28.57
2023-07-25T07:53:31.487Z,28.60
2023-07-25T07:58:33.565Z,28.64
2023-07-25T08:03:35.987Z,28.68
2023-07-25T08:08:38.370Z,28.75
2023-07-25T08:13:41.744Z,28.80
2023-07-25T08:18:43.850Z,28.90
2023-07-25T08:23:51.603Z,28.97
2023-07-25T08:29:03.779Z,29.10
2023-07-25T08:34:08.999Z,29.26
2023-07-25T08:39:15.809Z,29.39
2023-07-25T08:44:21.794Z,29.40
2023-07-25T08:49:31.702Z,29.49
2023-07-25T08:54:38.571Z,29.65
2023-07-25T08:59:43.946Z,29.72
2023-07-25T09:04:55.745Z,29.76
2023-07-25T09:10:02.136Z,29.70
2023-07-25T09:15:04.710Z,29.76
2023-07-25T09:20:08.714Z,29.66
2023-07-25T09:25:15.789Z,29.51
2023-07-25T09:30:20.312Z,29.56
2023-07-25T09:35:24.562Z,29.54
2023-07-25T09:40:26.699Z,29.63
2023-07-25T09:45:41.741Z,29.70
2023-07-25T09:50:45.778Z,29.60
2023-07-25T09:55:50.644Z,29.50
2023-07-25T10:00:57.512Z,29.58
2023-07-25T10:06:00.629Z,29.72
2023-07-25T10:11:11.165Z,29.75
2023-07-25T10:16:15.866Z,29.80
2023-07-25T10:21:18.970Z,30.00
2023-07-25T10:26:21.835Z,30.00
2023-07-25T10:31:37.082Z,29.71
2023-07-25T10:36:39.174Z,29.51
2023-07-25T10:41:46.214Z,29.27
2023-07-25T10:46:48.851Z,29.01
2023-07-25T10:51:58.111Z,28.83
2023-07-25T10:57:22.298Z,28.90
2023-07-25T11:02:38.896Z,28.83
2023-07-25T11:07:55.397Z,28.80
2023-07-25T11:13:07.225Z,28.82
2023-07-25T11:18:11.097Z,28.75
2023-07-25T11:23:13.621Z,28.73
2023-07-25T11:28:15.858Z,28.80
2023-07-25T11:33:18.147Z,28.92
2023-07-25T11:38:20.357Z,29.08
2023-07-25T11:43:25.714Z,29.01
2023-07-25T11:48:30.296Z,28.99
2023-07-25T11:53:36.792Z,28.97
2023-07-25T11:58:38.895Z,28.94
2023-07-25T12:03:51.202Z,29.09
2023-07-25T12:08:58.757Z,29.17
2023-07-25T12:14:19.420Z,29.27
2023-07-25T12:19:53.298Z,29.35
2023-07-25T12:25:08.567Z,29.44
2023-07-25T12:35:59.381Z,29.44
2023-07-25T12:41:17.421Z,29.47
2023-07-25T12:46:25.566Z,29.47
2023-07-25T12:51:41.592Z,29.44
2023-07-25T12:56:48.424Z,29.55
2023-07-25T13:02:11.228Z,29.62
2023-07-25T13:07:18.946Z,29.69
2023-07-25T13:12:29.324Z,29.90
2023-07-25T13:17:50.210Z,29.92
2023-07-25T13:22:59.780Z,29.91
2023-07-25T13:33:22.344Z,29.64
2023-07-25T13:38:29.991Z,29.68
2023-07-25T13:43:32.346Z,29.79
2023-07-25T13:48:34.548Z,29.90
2023-07-25T13:53:40.627Z,29.98
2023-07-25T13:58:43.382Z,30.15
2023-07-25T14:03:47.915Z,30.30
2023-07-25T14:08:50.189Z,30.49
2023-07-25T14:13:58.572Z,30.46
2023-07-25T14:24:24.648Z,30.47
2023-07-25T14:29:26.722Z,30.56
2023-07-25T14:34:35.610Z,30.54
2023-07-25T14:39:44.168Z,30.54
2023-07-25T14:44:49.656Z,30.43
2023-07-25T14:49:53.951Z,30.40
2023-07-25T14:54:59.428Z,30.40
2023-07-25T15:00:13.024Z,30.50
2023-07-25T15:05:14.920Z,30.51
2023-07-25T15:10:19.419Z,30.57
2023-07-25T15:15:33.275Z,30.61
2023-07-25T15:20:36.097Z,30.74
2023-07-25T15:25:38.191Z,30.78
2023-07-25T15:30:40.179Z,30.64
2023-07-25T15:35:46.107Z,30.59
2023-07-25T15:40:50.138Z,30.53
2023-07-25T15:45:52.607Z,30.59
2023-07-25T15:51:04.933Z,30.52
2023-07-25T15:56:09.343Z,30.46
2023-07-25T16:01:11.575Z,30.39
2023-07-25T16:06:14.070Z,30.33
2023-07-25T16:11:16.177Z,30.30
2023-07-25T16:16:20.634Z,30.31
2023-07-25T16:21:39.078Z,30.45
2023-07-25T16:26:44.401Z,30.59
2023-07-25T16:31:50.982Z,30.64
2023-07-25T16:36:53.937Z,30.70
2023-07-25T16:41:59.548Z,30.71
2023-07-25T16:47:02.826Z,30.73
2023-07-25T16:52:06.360Z,30.76
2023-07-25T16:57:13.936Z,30.85
2023-07-25T17:02:15.936Z,30.97
2023-07-25T17:07:22.535Z,31.04
2023-07-25T17:12:27.273Z,31.07
2023-07-25T17:17:33.073Z,31.10
2023-07-25T17:22:37.949Z,31.11
2023-07-25T17:27:41.854Z,31.14
2023-07-25T17:33:04.599Z,31.17
2023-07-25T17:38:10.829Z,31.22
2023-07-25T17:43:19.978Z,31.28
2023-07-25T17:48:32.919Z,31.30
2023-07-25T17:53:49.501Z,31.28
2023-07-25T17:58:57.087Z,31.26
2023-07-25T18:03:59.697Z,31.21
2023-07-25T18:09:13.217Z,31.16
2023-07-25T18:14:21.301Z,31.10
2023-07-25T18:19:27.245Z,31.04
2023-07-25T18:24:34.037Z,30.96
2023-07-25T18:29:53.148Z,30.86
2023-07-25T18:35:20.668Z,30.76
2023-07-25T18:40:22.845Z,30.66
2023-07-25T18:45:33.992Z,30.52
2023-07-25T18:50:37.775Z,30.39
2023-07-25T18:55:42.576Z,30.18
2023-07-25T19:00:50.400Z,29.95
2023-07-25T19:05:55.328Z,29.71
2023-07-25T19:10:59.732Z,29.52
2023-07-25T19:16:05.330Z,29.30
2023-07-25T19:21:11.561Z,29.04
2023-07-25T19:26:14.929Z,28.70
2023-07-25T19:31:17.101Z,28.46
2023-07-25T19:36:24.449Z,28.33
2023-07-25T19:41:26.673Z,28.03
2023-07-25T19:46:31.263Z,27.77
2023-07-25T19:51:39.654Z,27.75
2023-07-25T19:56:41.752Z,27.68
2023-07-25T20:01:44.228Z,27.50
2023-07-25T20:06:47.641Z,27.33
2023-07-25T20:11:49.726Z,27.16
2023-07-25T20:16:51.979Z,27.07
2023-07-25T20:21:54.809Z,26.95
2023-07-25T20:27:00.896Z,26.87
2023-07-25T20:32:07.269Z,26.82
2023-07-25T20:37:11.634Z,26.79
2023-07-25T20:42:32.052Z,26.75
2023-07-25T20:47:43.501Z,26.72
2023-07-25T20:52:57.347Z,26.57
2023-07-25T20:58:10.159Z,26.49
2023-07-25T21:03:21.828Z,26.49
2023-07-25T21:08:26.813Z,26.47
2023-07-25T21:14:02.137Z,26.48
2023-07-25T21:19:13.671Z,26.53
2023-07-25T21:24:32.740Z,26.58
2023-07-25T21:29:46.932Z,26.51
2023-07-25T21:34:51.034Z,26.44
2023-07-25T21:39:55.893Z,26.39
2023-07-25T21:45:06.607Z,26.47
2023-07-25T21:50:13.238Z,26.46
2023-07-25T21:55:40.056Z,26.40
2023-07-25T22:00:49.561Z,26.36
2023-07-25T22:06:13.953Z,26.36
2023-07-25T22:11:23.258Z,26.23
2023-07-25T22:16:33.550Z,26.14
2023-07-25T22:21:38.476Z,25.99
2023-07-25T22:26:50.914Z,25.90
2023-07-25T22:32:10.532Z,25.81
2023-07-25T22:37:16.001Z,25.82
2023-07-25T22:42:22.470Z,25.90
2023-07-25T22:47:43.827Z,25.97
2023-07-25T22:53:13.567Z,26.06
2023-07-25T22:58:17.008Z,26.11
2023-07-25T23:03:51.510Z,26.18
2023-07-25T23:09:01.235Z,26.16
2023-07-25T23:14:15.504Z,26.15
2023-07-25T23:24:43.198Z,26.06
2023-07-25T23:29:58.295Z,26.10
2023-07-25T23:35:17.140Z,26.10
2023-07-25T23:40:29.670Z,26.11
2023-07-25T23:45:33.972Z,26.06
2023-07-25T23:50:44.419Z,26.00
2023-07-25T23:55:57.593Z,25.93
